Time;durP1;ratioP1;P1;durP2;ratioP2;P2;SDS_P1;SDS_P2;PMS_P1;PMS_P2;Temp;Humidity;BMP_temperature;BMP_pressure;BME280_temperature;BME280_humidity;BME280_pressure;Samples;Min_cycle;Max_cycle;Signal;HPM_P1;HPM_P2
2021/12/12 00:01:37;;;;;;;8.03;6.77;;;;;;;10.46;100.00;98701.63;4895955;29;20501;-83
2021/12/12 00:04:12;;;;;;;8.57;6.13;;;;;;;10.44;100.00;98704.44;4910559;29;20486;-84
2021/12/12 00:06:47;;;;;;;11.15;5.72;;;;;;;10.34;100.00;98707.44;4915580;29;20032;-88
2021/12/12 00:09:22;;;;;;;8.63;5.95;;;;;;;10.23;100.00;98682.63;4912536;29;20028;-88
2021/12/12 00:11:48;;;;;;;7.57;5.32;;;;;;;10.15;100.00;98681.00;4924189;29;20035;-86
2021/12/12 00:14:24;;;;;;;7.60;4.82;;;;;;;10.23;100.00;98695.72;4917277;29;20032;-85
2021/12/12 00:16:51;;;;;;;5.20;4.63;;;;;;;10.33;100.00;98703.19;4922242;29;20143;-84
2021/12/12 00:19:18;;;;;;;6.45;5.03;;;;;;;10.32;100.00;98701.59;4910684;29;20115;-85
2021/12/12 00:21:48;;;;;;;6.60;5.35;;;;;;;10.39;100.00;98719.97;4918773;29;20059;-85
2021/12/12 00:24:16;;;;;;;6.10;4.50;;;;;;;10.42;100.00;98702.03;4905837;29;20047;-86
2021/12/12 00:26:43;;;;;;;6.80;5.13;;;;;;;10.51;100.00;98721.00;4925829;29;20032;-85
2021/12/12 00:29:12;;;;;;;6.75;5.05;;;;;;;10.33;100.00;98689.28;4908119;29;20115;-88
2021/12/12 00:31:38;;;;;;;6.82;5.35;;;;;;;10.42;100.00;98698.59;4912724;29;20061;-89
2021/12/12 00:34:04;;;;;;;9.20;5.07;;;;;;;10.51;100.00;98704.44;4933929;29;20035;-88
2021/12/12 00:36:32;;;;;;;9.68;5.60;;;;;;;10.36;100.00;98688.88;4895057;29;20044;-86
2021/12/12 00:39:03;;;;;;;6.88;4.95;;;;;;;10.45;100.00;98690.31;4895494;29;20401;-90
2021/12/12 00:41:54;;;;;;;6.57;5.15;;;;;;;10.56;100.00;98702.84;4927466;29;20028;-86
2021/12/12 00:44:21;;;;;;;8.43;5.50;;;;;;;10.59;100.00;98706.06;4894782;29;20402;-88
2021/12/12 00:46:48;;;;;;;8.70;5.88;;;;;;;10.47;100.00;98685.66;4921503;29;20032;-88
2021/12/12 00:49:15;;;;;;;9.38;5.72;;;;;;;10.42;100.00;98701.22;4907493;29;20036;-88
2021/12/12 00:51:43;;;;;;;8.23;5.30;;;;;;;10.48;100.00;98699.59;4888630;29;20361;-87
2021/12/12 00:54:11;;;;;;;9.90;5.50;;;;;;;10.43;100.00;98700.22;4910925;29;20482;-88
2021/12/12 00:56:37;;;;;;;8.93;5.95;;;;;;;10.42;100.00;98717.78;4909585;29;20390;-87
2021/12/12 00:59:04;;;;;;;7.57;5.82;;;;;;;10.37;100.00;98714.09;4895240;29;20032;-86
2021/12/12 01:01:35;;;;;;;9.60;6.28;;;;;;;10.30;100.00;98708.84;4909870;29;20036;-86
2021/12/12 01:04:07;;;;;;;8.50;6.55;;;;;;;10.33;100.00;98708.44;4908286;29;20557;-86
2021/12/12 01:06:33;;;;;;;9.88;6.78;;;;;;;10.35;100.00;98724.00;4911856;29;20035;-88
2021/12/12 01:09:05;;;;;;;8.95;6.80;;;;;;;10.17;100.00;98700.97;4912501;29;20039;-85
2021/12/12 01:11:36;;;;;;;11.68;8.00;;;;;;;10.20;100.00;98718.91;4907855;29;20036;-85
2021/12/12 01:14:06;;;;;;;11.20;7.93;;;;;;;10.15;100.00;98733.44;4892996;29;20126;-87
2021/12/12 01:16:43;;;;;;;10.80;7.63;;;;;;;10.09;100.00;98723.75;4891775;29;20040;-87
2021/12/12 01:19:22;;;;;;;14.70;8.70;;;;;;;10.12;100.00;98733.84;4925543;29;20402;-87
2021/12/12 01:21:52;;;;;;;10.35;7.18;;;;;;;10.10;100.00;98743.72;4907602;29;20035;-86
2021/12/12 01:24:27;;;;;;;11.05;7.45;;;;;;;10.06;100.00;98716.28;4908731;29;20062;-87
2021/12/12 01:26:55;;;;;;;10.27;7.30;;;;;;;10.17;100.00;98738.50;4892730;29;20044;-87
2021/12/12 01:29:21;;;;;;;9.77;6.70;;;;;;;10.10;100.00;98735.88;4906706;29;20541;-86
2021/12/12 01:31:48;;;;;;;9.52;6.90;;;;;;;10.12;100.00;98735.66;4924965;29;20027;-86
2021/12/12 01:34:28;;;;;;;7.72;5.88;;;;;;;10.05;100.00;98740.91;4921436;29;20039;-91
2021/12/12 01:39:30;;;;;;;8.05;5.38;;;;;;;9.96;100.00;98744.69;4925414;29;20513;-87
2021/12/12 01:42:06;;;;;;;6.18;4.82;;;;;;;10.01;100.00;98742.28;4921929;29;20402;-88
2021/12/12 01:44:52;;;;;;;5.72;4.28;;;;;;;10.05;100.00;98751.41;4909758;29;20232;-85
2021/12/12 01:47:33;;;;;;;7.07;4.85;;;;;;;10.09;100.00;98755.22;4904422;29;20479;-88
2021/12/12 01:50:06;;;;;;;6.15;4.32;;;;;;;10.03;100.00;98756.03;4906586;29;20137;-88
2021/12/12 01:52:32;;;;;;;5.32;3.85;;;;;;;10.04;100.00;98755.03;4907077;29;20058;-89
2021/12/12 01:55:08;;;;;;;4.93;3.90;;;;;;;10.09;100.00;98751.78;4924358;29;20038;-88
2021/12/12 01:57:36;;;;;;;4.75;3.65;;;;;;;9.97;100.00;98735.81;4908946;29;20530;-89
2021/12/12 02:00:13;;;;;;;4.50;3.35;;;;;;;10.05;100.00;98754.00;4895134;29;20076;-89
2021/12/12 02:02:40;;;;;;;5.55;4.00;;;;;;;10.19;100.00;98764.50;4892046;29;20028;-87
2021/12/12 02:05:12;;;;;;;5.53;3.40;;;;;;;10.22;100.00;98779.84;4906218;29;20423;-87
2021/12/12 02:07:42;;;;;;;4.20;2.90;;;;;;;10.23;100.00;98771.00;4930842;29;20032;-89
2021/12/12 02:10:17;;;;;;;4.53;3.13;;;;;;;10.26;100.00;98783.72;4907126;29;20816;-87
2021/12/12 02:12:45;;;;;;;3.97;3.30;;;;;;;10.27;100.00;98783.50;4891484;29;20032;-86
2021/12/12 02:15:15;;;;;;;4.43;3.65;;;;;;;10.31;100.00;98799.66;4902269;29;20047;-87
2021/12/12 02:17:47;;;;;;;4.43;3.25;;;;;;;10.33;100.00;98789.78;4928423;29;20063;-87
2021/12/12 02:20:34;;;;;;;3.97;3.45;;;;;;;10.27;100.00;98772.22;4913740;29;20087;-88
2021/12/12 02:23:18;;;;;;;3.75;3.35;;;;;;;10.34;100.00;98790.59;4910820;29;20028;-87
2021/12/12 02:36:52;;;;;;;3.70;3.20;;;;;;;10.38;100.00;98805.72;4925947;29;20055;-88
2021/12/12 02:39:19;;;;;;;3.40;3.10;;;;;;;10.41;100.00;98807.19;4897171;29;20504;-86
2021/12/12 02:41:50;;;;;;;3.72;3.42;;;;;;;10.38;100.00;98805.72;4900720;29;20028;-88
2021/12/12 02:44:21;;;;;;;4.03;3.28;;;;;;;10.38;100.00;98821.47;4913064;29;20039;-86
2021/12/12 02:46:48;;;;;;;3.55;3.05;;;;;;;10.41;100.00;98826.34;4910759;29;20507;-84
2021/12/12 02:49:37;;;;;;;3.40;3.10;;;;;;;10.41;100.00;98826.34;4911718;29;20031;-85
2021/12/12 02:52:09;;;;;;;3.50;3.15;;;;;;;10.41;100.00;98826.34;4912578;29;20034;-85
2021/12/12 02:54:35;;;;;;;3.35;3.05;;;;;;;10.46;100.00;98830.22;4926277;29;20032;-86
2021/12/12 02:57:01;;;;;;;4.60;3.30;;;;;;;10.45;100.00;98824.13;4894060;29;20040;-87
2021/12/12 02:59:27;;;;;;;3.40;3.10;;;;;;;10.45;100.00;98826.75;4911002;29;20024;-85
2021/12/12 03:02:07;;;;;;;3.65;3.15;;;;;;;10.49;100.00;98837.69;4896459;29;20024;-88
2021/12/12 03:04:34;;;;;;;3.65;3.17;;;;;;;10.51;100.00;98849.56;4894682;29;20035;-85
2021/12/12 03:07:02;;;;;;;3.22;2.95;;;;;;;10.51;100.00;98843.53;4929806;29;20035;-84
2021/12/12 03:09:32;;;;;;;3.33;2.70;;;;;;;10.48;100.00;98841.31;4890730;29;20506;-84
2021/12/12 03:12:02;;;;;;;3.55;2.40;;;;;;;10.47;100.00;98843.13;4905605;29;20036;-86
2021/12/12 03:14:32;;;;;;;3.28;2.25;;;;;;;10.50;100.00;98828.78;4910203;29;20581;-87
2021/12/12 03:17:06;;;;;;;2.33;2.13;;;;;;;10.56;100.00;98836.69;4912435;29;20032;-86
2021/12/12 03:19:33;;;;;;;2.28;2.08;;;;;;;10.49;100.00;98832.44;4930492;29;20066;-86
2021/12/12 03:21:59;;;;;;;2.50;2.30;;;;;;;10.51;100.00;98827.78;4908795;29;20464;-86
2021/12/12 03:24:27;;;;;;;2.08;1.88;;;;;;;10.47;100.00;98834.44;4892380;29;20091;-86
2021/12/12 03:27:00;;;;;;;2.20;2.00;;;;;;;10.39;100.00;98822.28;4907260;29;20091;-86
2021/12/12 03:29:27;;;;;;;2.15;1.95;;;;;;;10.45;100.00;98823.34;4924547;29;20039;-83
2021/12/12 03:32:03;;;;;;;1.48;1.38;;;;;;;10.48;100.00;98833.44;4925550;29;20378;-86
2021/12/12 03:34:34;;;;;;;2.42;2.22;;;;;;;10.51;100.00;98825.97;4912017;29;20040;-87
2021/12/12 03:37:01;;;;;;;2.70;2.47;;;;;;;10.46;100.00;98828.38;4899964;29;20043;-87
2021/12/12 03:39:30;;;;;;;2.35;2.15;;;;;;;10.36;100.00;98823.47;4908410;29;20044;-86
2021/12/12 03:41:59;;;;;;;3.75;2.67;;;;;;;10.29;100.00;98826.09;4924427;29;20493;-86
2021/12/12 03:44:29;;;;;;;3.00;2.70;;;;;;;10.30;100.00;98824.28;4902593;29;20032;-87
2021/12/12 03:47:00;;;;;;;2.80;2.50;;;;;;;10.37;100.00;98832.97;4928031;29;20046;-86
2021/12/12 03:49:26;;;;;;;4.20;2.83;;;;;;;10.39;100.00;98838.03;4895356;29;20031;-86
2021/12/12 03:51:52;;;;;;;3.40;3.00;;;;;;;10.42;100.00;98837.66;4926976;29;20042;-86
2021/12/12 03:54:18;;;;;;;3.40;3.05;;;;;;;10.34;100.00;98833.38;4909731;29;20036;-84
2021/12/12 03:56:46;;;;;;;3.38;2.75;;;;;;;10.48;100.00;98846.56;4915997;29;20102;-85
2021/12/12 03:59:13;;;;;;;2.92;2.63;;;;;;;10.38;100.00;98837.22;4929604;29;20032;-85
2021/12/12 04:01:43;;;;;;;3.35;3.03;;;;;;;10.51;100.00;98848.78;4907351;29;20036;-88
2021/12/12 04:04:22;;;;;;;3.25;2.72;;;;;;;10.51;100.00;98862.69;4927731;29;20031;-87
2021/12/12 04:06:51;;;;;;;3.22;2.92;;;;;;;10.46;100.00;98872.19;4925457;29;20106;-86
2021/12/12 04:09:18;;;;;;;3.17;2.83;;;;;;;10.52;100.00;98866.16;4918419;29;20185;-86
2021/12/12 04:11:47;;;;;;;5.72;3.20;;;;;;;10.50;100.00;98855.03;4924614;29;20122;-87
2021/12/12 04:14:16;;;;;;;3.40;2.55;;;;;;;10.56;100.00;98864.72;4910103;29;20114;-87
2021/12/12 04:16:46;;;;;;;3.30;3.00;;;;;;;10.46;100.00;98852.00;4930086;29;20031;-87
2021/12/12 04:19:12;;;;;;;3.50;3.10;;;;;;;10.55;100.00;98866.56;4932439;29;20031;-86
2021/12/12 04:21:39;;;;;;;3.10;2.80;;;;;;;10.54;100.00;98866.75;4922302;29;20041;-91
2021/12/12 04:24:06;;;;;;;2.80;2.60;;;;;;;10.54;100.00;98872.81;4925035;29;20040;-88
2021/12/12 04:26:42;;;;;;;2.38;2.17;;;;;;;10.50;100.00;98865.53;4913472;29;20554;-90
2021/12/12 04:29:11;;;;;;;2.42;2.17;;;;;;;10.46;100.00;98878.22;4891959;29;20036;-89
2021/12/12 04:31:39;;;;;;;3.25;2.90;;;;;;;10.47;100.00;98874.59;4911301;29;20071;-86
2021/12/12 04:34:06;;;;;;;3.05;2.60;;;;;;;10.47;100.00;98881.69;4912344;29;20042;-86
2021/12/12 04:36:36;;;;;;;2.40;2.20;;;;;;;10.38;100.00;98873.94;4907845;29;20051;-85
2021/12/12 04:39:18;;;;;;;2.50;2.13;;;;;;;10.42;100.00;98883.09;4908296;29;20047;-85
2021/12/12 04:41:47;;;;;;;2.30;2.10;;;;;;;10.40;100.00;98879.81;4923488;29;20482;-83
2021/12/12 04:44:13;;;;;;;2.25;1.92;;;;;;;10.40;100.00;98892.94;4909646;29;20044;-83
2021/12/12 04:49:55;;;;;;;2.63;2.22;;;;;;;10.40;100.00;98886.88;4925191;29;20443;-86
2021/12/12 04:52:28;;;;;;;1.83;1.67;;;;;;;10.44;100.00;98901.25;4923632;29;20454;-85
2021/12/12 04:55:09;;;;;;;2.10;1.90;;;;;;;10.45;100.00;98900.22;4927804;29;20099;-85
2021/12/12 04:57:45;;;;;;;2.20;2.00;;;;;;;10.45;100.00;98894.19;4907192;29;20036;-86
2021/12/12 05:00:17;;;;;;;6.00;2.10;;;;;;;10.47;100.00;98902.69;4909521;29;20028;-85
2021/12/12 05:02:54;;;;;;;2.63;2.28;;;;;;;10.49;100.00;98901.44;4924482;29;20442;-86
2021/12/12 05:05:29;;;;;;;2.20;2.00;;;;;;;10.52;100.00;98908.13;4924893;29;20043;-86
2021/12/12 05:08:19;;;;;;;2.72;2.33;;;;;;;10.52;100.00;98922.06;4896788;29;20031;-88
2021/12/12 05:10:52;;;;;;;2.50;2.10;;;;;;;10.52;100.00;98913.38;4907658;29;20046;-87
2021/12/12 05:13:21;;;;;;;2.17;1.60;;;;;;;10.50;100.00;98918.03;4925050;29;20066;-86
2021/12/12 05:15:51;;;;;;;1.20;1.10;;;;;;;10.36;100.00;98914.50;4927548;29;20042;-86
2021/12/12 05:18:27;;;;;;;0.80;0.80;;;;;;;10.31;100.00;98904.59;4927332;29;20036;-87
2021/12/12 05:20:58;;;;;;;1.17;0.77;;;;;;;10.28;100.00;98920.72;4908426;29;20040;-88
2021/12/12 05:23:27;;;;;;;0.60;0.60;;;;;;;10.19;100.00;98922.72;4888756;29;20035;-87
2021/12/12 05:26:09;;;;;;;0.82;0.60;;;;;;;10.08;100.00;98924.06;4911631;29;20047;-87
2021/12/12 05:28:41;;;;;;;0.30;0.30;;;;;;;10.07;100.00;98924.25;4926046;29;20039;-87
2021/12/12 05:31:10;;;;;;;0.40;0.40;;;;;;;9.98;100.00;98918.34;4926646;29;20031;-87
2021/12/12 05:33:36;;;;;;;0.40;0.40;;;;;;;9.98;100.00;98918.34;4892712;29;20051;-87
2021/12/12 05:36:06;;;;;;;0.43;0.40;;;;;;;9.92;100.00;98916.53;4895265;29;20040;-85
2021/12/12 05:38:33;;;;;;;0.80;0.40;;;;;;;9.83;100.00;98913.25;4894602;29;20123;-86
2021/12/12 05:41:00;;;;;;;0.30;0.30;;;;;;;9.88;100.00;98917.91;4906588;29;20106;-88
2021/12/12 05:43:27;;;;;;;1.10;0.30;;;;;;;9.90;100.00;98915.91;4895600;29;20027;-86
2021/12/12 05:45:53;;;;;;;0.30;0.30;;;;;;;9.88;100.00;98916.09;4927288;29;20035;-86
2021/12/12 05:48:21;;;;;;;0.38;0.38;;;;;;;9.82;100.00;98917.66;4908984;29;20036;-86
2021/12/12 05:50:49;;;;;;;0.30;0.30;;;;;;;9.85;100.00;98927.78;4922180;29;20551;-85
2021/12/12 05:53:15;;;;;;;0.52;0.50;;;;;;;9.84;100.00;98926.16;4910134;29;20043;-85
2021/12/12 05:55:42;;;;;;;1.10;0.40;;;;;;;9.79;100.00;98920.66;4894305;29;20024;-86
2021/12/12 05:58:13;;;;;;;0.70;0.43;;;;;;;9.61;100.00;98909.88;4909399;29;20032;-86
2021/12/12 06:00:43;;;;;;;2.05;0.75;;;;;;;9.52;100.00;98911.81;4912602;29;20072;-84
2021/12/12 06:03:11;;;;;;;0.50;0.50;;;;;;;9.45;100.00;98918.81;4894214;29;20115;-88
2021/12/12 06:05:37;;;;;;;0.80;0.60;;;;;;;9.43;100.00;98919.81;4907038;29;20032;-85
2021/12/12 06:08:05;;;;;;;2.55;0.82;;;;;;;9.37;100.00;98922.41;4925192;29;20479;-86
2021/12/12 06:10:34;;;;;;;1.55;1.25;;;;;;;9.42;100.00;98928.69;4918405;29;20027;-84
2021/12/12 06:13:01;;;;;;;1.92;1.33;;;;;;;9.49;100.00;98939.22;4897638;29;20078;-84
2021/12/12 06:15:30;;;;;;;4.93;3.00;;;;;;;9.51;100.00;98925.91;4907895;29;20055;-84
2021/12/12 06:17:56;;;;;;;8.32;4.30;;;;;;;9.55;100.00;98933.22;4931248;29;20035;-84
2021/12/12 06:20:22;;;;;;;14.30;6.82;;;;;;;9.58;100.00;98937.28;4907887;29;20032;-85
2021/12/12 06:22:49;;;;;;;16.80;7.50;;;;;;;9.68;100.00;98936.94;4925411;29;20039;-84
2021/12/12 06:25:15;;;;;;;20.25;8.77;;;;;;;9.71;100.00;98934.72;4911737;29;20092;-84
2021/12/12 06:27:41;;;;;;;15.02;7.82;;;;;;;9.70;100.00;98930.50;4911962;29;20110;-85
2021/12/12 06:30:11;;;;;;;22.98;9.82;;;;;;;9.77;100.00;98951.50;4930036;29;21692;-83
2021/12/12 06:32:38;;;;;;;22.60;9.23;;;;;;;9.83;100.00;98957.81;4905717;29;20054;-86
2021/12/12 06:35:06;;;;;;;21.50;9.65;;;;;;;9.83;100.00;98958.63;4905128;29;20040;-85
2021/12/12 06:37:32;;;;;;;22.00;9.25;;;;;;;9.87;100.00;98972.16;4924170;29;20506;-85
2021/12/12 06:39:58;;;;;;;21.80;9.57;;;;;;;9.85;100.00;98961.88;4895607;29;20466;-85
2021/12/12 06:42:25;;;;;;;22.90;11.77;;;;;;;9.98;100.00;98973.44;4911287;29;20028;-84
2021/12/12 06:44:51;;;;;;;33.05;13.38;;;;;;;9.94;100.00;98965.16;4909913;29;20043;-86
2021/12/12 06:47:18;;;;;;;29.08;13.25;;;;;;;10.00;100.00;98982.72;4924512;29;20032;-87
2021/12/12 06:49:45;;;;;;;35.92;15.25;;;;;;;9.97;100.00;98977.06;4894833;29;20088;-85
2021/12/12 06:52:13;;;;;;;34.38;15.73;;;;;;;9.98;100.00;98968.19;4895541;29;20033;-87
2021/12/12 06:54:39;;;;;;;30.45;14.02;;;;;;;9.98;100.00;98973.44;4930415;29;20044;-86
2021/12/12 06:57:08;;;;;;;30.23;13.52;;;;;;;10.01;100.00;98967.78;4924989;29;20044;-85
2021/12/12 06:59:37;;;;;;;31.48;13.32;;;;;;;10.03;100.00;98986.78;4895030;29;20060;-86
2021/12/12 07:02:06;;;;;;;31.73;13.38;;;;;;;10.03;100.00;98986.78;4894260;29;20024;-87
2021/12/12 07:04:33;;;;;;;30.55;12.38;;;;;;;10.05;100.00;98982.16;4889887;29;20135;-87
2021/12/12 07:07:01;;;;;;;32.65;12.88;;;;;;;10.08;100.00;98992.25;4926990;29;20060;-86
2021/12/12 07:09:30;;;;;;;33.90;13.50;;;;;;;10.06;100.00;98983.78;4908897;29;20469;-86
2021/12/12 07:12:01;;;;;;;29.50;11.45;;;;;;;10.14;100.00;98988.88;4923045;29;20020;-84
2021/12/12 07:14:27;;;;;;;28.23;12.60;;;;;;;10.12;100.00;98985.63;4907323;29;20052;-84
2021/12/12 07:16:54;;;;;;;24.73;10.05;;;;;;;10.05;100.00;98976.91;4907810;29;20082;-85
2021/12/12 07:19:21;;;;;;;26.05;10.32;;;;;;;10.09;100.00;98978.16;4925857;29;20065;-83
2021/12/12 07:21:48;;;;;;;24.00;9.93;;;;;;;10.12;100.00;98982.19;4906992;29;20033;-84
2021/12/12 07:24:15;;;;;;;20.73;8.75;;;;;;;10.13;100.00;98992.50;4924313;29;20044;-85
2021/12/12 07:26:40;;;;;;;17.52;8.10;;;;;;;10.15;100.00;98995.72;4923802;29;20047;-85
2021/12/12 07:29:06;;;;;;;18.55;8.13;;;;;;;10.17;100.00;98990.31;4900645;29;20036;-84
2021/12/12 07:31:37;;;;;;;17.08;8.55;;;;;;;10.21;100.00;98988.06;4906331;29;20036;-89
2021/12/12 07:34:07;;;;;;;15.63;7.03;;;;;;;10.25;100.00;98997.22;4926724;29;20040;-88
2021/12/12 07:36:38;;;;;;;12.88;6.70;;;;;;;10.27;100.00;99000.44;4888410;29;20055;-86
2021/12/12 07:39:09;;;;;;;13.50;7.43;;;;;;;10.21;100.00;98982.84;4911606;29;20134;-86
2021/12/12 07:41:36;;;;;;;12.25;6.35;;;;;;;10.26;100.00;98996.19;4903575;29;20036;-87
2021/12/12 07:44:06;;;;;;;14.13;6.78;;;;;;;10.29;100.00;98996.59;4926501;29;20042;-88
2021/12/12 07:46:33;;;;;;;11.88;6.47;;;;;;;10.34;100.00;98993.41;4893957;29;20035;-86
2021/12/12 07:48:59;;;;;;;11.65;6.63;;;;;;;10.30;100.00;98986.94;4898874;29;20431;-87
2021/12/12 07:51:26;;;;;;;19.30;11.32;;;;;;;10.32;100.00;98990.16;4929571;29;20512;-89
2021/12/12 07:53:57;;;;;;;20.58;11.73;;;;;;;10.35;100.00;98992.41;4899707;29;20051;-87
2021/12/12 07:56:27;;;;;;;21.02;8.73;;;;;;;10.25;100.00;98984.88;4894798;29;20031;-90
2021/12/12 07:58:55;;;;;;;16.15;8.27;;;;;;;10.27;100.00;98989.94;4898127;29;20494;-87
2021/12/12 08:01:22;;;;;;;16.83;7.85;;;;;;;10.27;100.00;98998.63;4911579;29;20028;-89
2021/12/12 08:03:52;;;;;;;22.10;11.23;;;;;;;10.29;100.00;99001.06;4894607;29;20035;-87
2021/12/12 08:06:18;;;;;;;20.67;10.77;;;;;;;10.24;100.00;98992.97;4929093;29;20043;-87
2021/12/12 08:08:44;;;;;;;20.17;9.90;;;;;;;10.34;100.00;99011.78;4926609;29;20475;-88
2021/12/12 08:11:14;;;;;;;15.07;8.40;;;;;;;10.31;100.00;99004.28;4908635;29;20059;-87
2021/12/12 08:13:39;;;;;;;17.38;8.93;;;;;;;10.27;100.00;99008.31;4907656;29;20036;-90
2021/12/12 08:16:08;;;;;;;11.93;6.72;;;;;;;10.26;100.00;99006.69;4892965;29;20035;-86
2021/12/12 08:18:37;;;;;;;10.27;6.15;;;;;;;10.34;100.00;99018.84;4918317;29;20028;-87
2021/12/12 08:21:04;;;;;;;10.95;6.85;;;;;;;10.43;100.00;99028.19;4901041;29;20036;-89
2021/12/12 08:23:29;;;;;;;12.63;7.40;;;;;;;10.46;100.00;99025.19;4929434;29;20035;-88
2021/12/12 08:25:57;;;;;;;21.45;12.07;;;;;;;10.35;100.00;98995.03;4923783;29;20410;-88
2021/12/12 08:28:24;;;;;;;24.85;12.82;;;;;;;10.31;100.00;98998.22;4909461;29;20032;-88
2021/12/12 08:30:51;;;;;;;20.60;11.43;;;;;;;10.35;100.00;98984.53;4908434;29;20553;-88
2021/12/12 08:33:17;;;;;;;20.30;11.20;;;;;;;10.46;100.00;99000.78;4908347;29;20040;-89
2021/12/12 08:35:44;;;;;;;14.95;8.23;;;;;;;10.63;100.00;99025.69;4921060;29;20031;-89
2021/12/12 08:38:12;;;;;;;14.10;6.88;;;;;;;10.64;100.00;99023.84;4917958;29;20055;-90
2021/12/12 08:40:45;;;;;;;17.65;8.70;;;;;;;10.57;100.00;99013.31;4890208;29;20074;-89
2021/12/12 08:43:13;;;;;;;13.25;7.68;;;;;;;10.66;100.00;99027.91;4906228;29;20036;-87
2021/12/12 08:45:50;;;;;;;12.68;7.47;;;;;;;10.80;100.00;99034.03;4891125;29;20047;-87
2021/12/12 08:48:19;;;;;;;14.02;8.10;;;;;;;10.83;100.00;99045.97;4890950;29;20036;-90
2021/12/12 08:50:49;;;;;;;11.23;6.50;;;;;;;10.82;100.00;99046.97;4891768;29;20088;-89
2021/12/12 08:53:17;;;;;;;9.55;6.90;;;;;;;10.76;100.00;99021.47;4907553;29;20039;-93
2021/12/12 08:55:45;;;;;;;14.00;8.32;;;;;;;10.65;100.00;99013.19;4896137;29;20036;-89
2021/12/12 08:58:18;;;;;;;13.75;8.75;;;;;;;10.73;100.00;99025.34;4908907;29;20035;-91
2021/12/12 09:01:02;;;;;;;11.52;8.00;;;;;;;10.79;100.00;99047.34;4890736;29;20036;-89
2021/12/12 09:03:41;;;;;;;13.48;8.10;;;;;;;10.78;100.00;99043.09;4932509;29;20028;-89
2021/12/12 09:06:10;;;;;;;8.85;6.90;;;;;;;10.97;100.00;99066.00;4906251;29;20044;-90
2021/12/12 09:08:58;;;;;;;7.65;5.78;;;;;;;10.97;100.00;99066.00;4921701;29;20394;-89
2021/12/12 09:11:33;;;;;;;8.05;6.15;;;;;;;11.03;100.00;99063.63;4906586;29;20042;-91
2021/12/12 09:14:10;;;;;;;8.52;6.65;;;;;;;10.87;100.00;99049.81;4905033;29;20056;-90
2021/12/12 09:16:54;;;;;;;8.80;7.13;;;;;;;11.04;100.00;99071.28;4919204;29;20036;-90
2021/12/12 09:19:25;;;;;;;9.60;7.72;;;;;;;10.99;100.00;99060.56;4905460;29;20044;-87
2021/12/12 09:22:02;;;;;;;11.35;8.57;;;;;;;11.17;100.00;99081.03;4911189;29;20562;-90
2021/12/12 09:24:31;;;;;;;12.75;9.70;;;;;;;11.20;100.00;99088.53;4888933;29;20044;-88
2021/12/12 09:27:05;;;;;;;10.23;8.45;;;;;;;11.24;100.00;99081.06;4903268;29;20122;-89
2021/12/12 09:29:45;;;;;;;14.82;7.03;;;;;;;11.32;100.00;99093.19;4887600;29;20119;-90
2021/12/12 09:32:20;;;;;;;9.23;6.97;;;;;;;11.28;100.00;99096.22;4888481;29;20067;-87
2021/12/12 09:34:53;;;;;;;11.32;8.70;;;;;;;11.27;100.00;99072.75;4904999;29;20046;-88
2021/12/12 09:37:22;;;;;;;6.47;5.50;;;;;;;11.52;100.00;99104.56;4923810;29;20063;-87
2021/12/12 09:39:55;;;;;;;6.80;5.63;;;;;;;11.41;100.00;99071.00;4891789;29;20346;-88
2021/12/12 09:42:57;;;;;;;8.00;6.97;;;;;;;11.61;100.00;99101.78;4904200;29;20059;-87
2021/12/12 09:45:39;;;;;;;4.55;3.20;;;;;;;11.66;100.00;99101.97;4924798;29;20028;-90
2021/12/12 09:51:56;;;;;;;2.70;2.50;;;;;;;11.77;100.00;99097.94;4914186;29;20095;-88
2021/12/12 09:54:35;;;;;;;3.67;2.60;;;;;;;11.88;100.00;99109.69;4923111;29;20119;-86
2021/12/12 09:57:28;;;;;;;3.63;2.63;;;;;;;11.87;100.00;99111.50;4904079;29;20060;-84
2021/12/12 10:00:02;;;;;;;2.60;2.25;;;;;;;11.85;100.00;99103.81;4930559;29;20028;-86
2021/12/12 10:02:58;;;;;;;2.88;2.40;;;;;;;11.94;100.00;99100.97;4925618;29;20367;-85
2021/12/12 10:05:32;;;;;;;3.35;2.00;;;;;;;12.00;100.00;99095.72;4919809;29;20036;-86
2021/12/12 10:08:23;;;;;;;3.03;2.60;;;;;;;12.17;100.00;99115.59;4906079;29;20062;-87
2021/12/12 10:11:10;;;;;;;2.75;1.88;;;;;;;12.24;100.00;99116.41;4909266;29;20028;-86
2021/12/12 10:13:51;;;;;;;2.08;1.90;;;;;;;12.23;100.00;99109.53;4896757;29;20131;-88
2021/12/12 10:16:34;;;;;;;2.08;1.83;;;;;;;12.30;100.00;99110.31;4891019;29;20043;-88
2021/12/12 10:19:23;;;;;;;2.58;1.90;;;;;;;12.24;100.00;99104.03;4927498;29;20437;-87
2021/12/12 10:21:59;;;;;;;2.63;2.40;;;;;;;12.42;100.00;99110.50;4896415;29;20032;-86
2021/12/12 10:24:37;;;;;;;4.50;2.03;;;;;;;12.36;100.00;99109.50;4928023;29;20443;-88
2021/12/12 10:27:21;;;;;;;2.33;1.70;;;;;;;12.43;100.00;99110.31;4910666;29;20130;-86
2021/12/12 10:30:08;;;;;;;1.70;1.60;;;;;;;12.58;100.00;99117.19;4926880;29;20031;-87
2021/12/12 10:32:45;;;;;;;1.27;1.10;;;;;;;12.61;100.00;99113.31;4907647;29;20036;-88
2021/12/12 10:35:17;;;;;;;3.58;1.55;;;;;;;12.80;100.00;99093.22;4909991;29;20036;-87
2021/12/12 10:38:17;;;;;;;2.83;1.70;;;;;;;12.83;100.00;99105.97;4934473;29;20553;-87
2021/12/12 10:40:55;;;;;;;3.45;1.88;;;;;;;12.81;100.00;99100.09;4918522;29;20413;-87
2021/12/12 10:43:30;;;;;;;1.83;1.30;;;;;;;12.69;100.00;99105.22;4929340;29;20036;-89
2021/12/12 10:46:05;;;;;;;1.35;1.00;;;;;;;12.73;100.00;99108.22;4918575;29;20051;-88
2021/12/12 10:48:38;;;;;;;1.67;1.15;;;;;;;12.77;100.00;99104.97;4916803;29;20036;-89
2021/12/12 10:51:17;;;;;;;1.40;1.13;;;;;;;12.82;100.00;99104.38;4911810;29;20609;-88
2021/12/12 10:54:01;;;;;;;1.88;1.30;;;;;;;12.80;100.00;99101.13;4930859;29;20028;-89
2021/12/12 10:56:34;;;;;;;1.83;1.00;;;;;;;12.80;100.00;99099.28;4922029;29;20043;-90
2021/12/12 10:59:10;;;;;;;0.90;0.90;;;;;;;12.80;100.00;99098.50;4930494;29;20024;-89
2021/12/12 11:01:43;;;;;;;1.17;1.08;;;;;;;12.79;100.00;99105.56;4928413;29;20031;-88
2021/12/12 11:04:18;;;;;;;1.38;1.17;;;;;;;12.83;100.00;99105.97;4936788;29;20031;-88
2021/12/12 11:07:00;;;;;;;2.90;1.15;;;;;;;12.81;100.00;99105.38;4925938;29;20039;-89
2021/12/12 11:09:44;;;;;;;1.92;1.20;;;;;;;12.97;100.00;99104.91;4927687;29;20064;-88
2021/12/12 11:12:10;;;;;;;1.10;1.00;;;;;;;12.99;100.00;99109.97;4893064;29;20159;-89
2021/12/12 11:14:46;;;;;;;1.65;1.30;;;;;;;13.11;100.00;99110.13;4929936;29;20035;-91
2021/12/12 11:17:25;;;;;;;1.35;1.25;;;;;;;13.14;100.00;99105.25;4931232;29;20036;-89
2021/12/12 11:20:19;;;;;;;1.20;1.10;;;;;;;13.25;100.00;99111.69;4904114;29;20427;-89
2021/12/12 11:22:55;;;;;;;1.35;1.10;;;;;;;13.34;100.00;99117.53;4921343;29;20506;-90
2021/12/12 11:25:37;;;;;;;1.17;1.08;;;;;;;13.26;100.00;99110.66;4889713;29;20047;-88
2021/12/12 11:28:18;;;;;;;1.75;1.25;;;;;;;13.33;100.00;99118.53;4929327;29;20553;-87
2021/12/12 11:30:48;;;;;;;2.25;1.00;;;;;;;13.11;100.00;99115.38;4908882;29;20070;-87
2021/12/12 11:33:16;;;;;;;1.45;0.95;;;;;;;13.16;100.00;99123.47;4907836;29;20556;-86
2021/12/12 11:35:46;;;;;;;1.23;1.10;;;;;;;13.19;100.00;99123.06;4928524;29;20509;-87
2021/12/12 11:38:46;;;;;;;1.52;1.00;;;;;;;13.24;100.00;99120.63;4935831;29;20130;-87
2021/12/12 11:41:17;;;;;;;1.77;1.10;;;;;;;13.25;100.00;99116.13;4890371;29;20494;-88
2021/12/12 11:44:09;;;;;;;1.02;0.93;;;;;;;13.42;100.00;99114.63;4919040;29;20038;-88
2021/12/12 11:46:40;;;;;;;2.05;0.93;;;;;;;13.41;100.00;99110.38;4925124;29;20088;-90
2021/12/12 11:49:16;;;;;;;2.78;1.10;;;;;;;13.30;100.00;99111.06;4895095;29;20356;-89
2021/12/12 11:52:00;;;;;;;1.33;1.05;;;;;;;13.31;100.00;99104.78;4924256;29;20063;-88
2021/12/12 11:54:41;;;;;;;0.90;0.90;;;;;;;13.25;100.00;99093.22;4929919;29;20036;-89
2021/12/12 11:57:53;;;;;;;2.08;1.00;;;;;;;13.06;100.00;99091.50;4928168;29;20509;-88
2021/12/12 12:00:28;;;;;;;0.98;0.98;;;;;;;12.90;100.00;99093.59;4916767;29;20055;-88
2021/12/12 12:03:21;;;;;;;2.17;1.30;;;;;;;12.91;100.00;99105.72;4910872;29;20402;-88
2021/12/12 12:06:00;;;;;;;1.30;1.20;;;;;;;13.17;100.00;99098.75;4922580;29;20028;-88
2021/12/12 12:08:39;;;;;;;4.55;1.63;;;;;;;13.25;100.00;99101.13;4915579;29;20087;-88